Pagina principale
METAR-TAF:

METAR-TAF

Aeroporti :

San Gallo, Svizzera

latitudine: 47-29-06N, longitudine: 009-33-43E, altezza: 398 m

Osservazione

Il bollettino è stato emesso 21 minuti fa, alle 00:50 UTC
Vento 16 kt da ovest
Temperature 14°C
Umidità 55%
Pressione 1024 hPa
Visibilità 10 km o più
Nuvoloso ad un'altezza di 5000 ft

METAR: LSZR 240050Z AUTO 28016KT 9999 BKN050 14/05 Q1024

Ora: 02:11 (01:11 UTC)

Previsione

Il bollettino è stato emesso 10 ore e 46 minuti fa, alle 14:25 UTC
Previsione valida dal 23 alle 15 UTC al 23 alle 24 UTC
Vento 10 kt da ovest
Visibilità 10 km o più
Poco nuvoloso ad un'altezza di 6500 ft
Evoluzione graduale
dal 23 alle 16 UTC al 23 alle 19 UTC
Vento 13 kt da ovest con raffiche fino a 28 kt

TAF: LSZR 231425Z 2315/2324 26010KT 9999 FEW065 BECMG 2316/2319 26013G28KT

Osservazioni e previsioni meteorologiche di più di 4000 aeroporti (messaggi METAR e TAF).

Le stazioni disponibili sono rappresentate dai dischi gialli e rossi sulla carta.

Puntare il mouse per vedere il nome della stazione.

Clicca sopra per visualizzare le osservazioni e previsioni meteorologiche.

Per cambiare la mappa : fare clic sui pulsanti verdi con una croce nera per ingrandire, il pulsante verde con un trattino per diminuire, o sulla freccia verde per le mappe adiacenti.


METAR-TAF: